sensor_id;sensor_type;location;lat;lon;timestamp;temperature;humidity
18101;DHT22;9177;49.156;8.142;2023-11-19T00:02:07;19.50;95.80
18101;DHT22;9177;49.156;8.142;2023-11-19T00:04:37;19.50;95.90
18101;DHT22;9177;49.156;8.142;2023-11-19T00:07:04;19.50;95.90
18101;DHT22;9177;49.156;8.142;2023-11-19T00:09:33;19.50;95.90
18101;DHT22;9177;49.156;8.142;2023-11-19T00:12:03;19.50;95.90
18101;DHT22;9177;49.156;8.142;2023-11-19T00:14:30;19.50;96.00
18101;DHT22;9177;49.156;8.142;2023-11-19T00:16:57;19.50;96.00
18101;DHT22;9177;49.156;8.142;2023-11-19T00:19:26;19.50;96.00
18101;DHT22;9177;49.156;8.142;2023-11-19T00:21:53;19.50;96.40
18101;DHT22;9177;49.156;8.142;2023-11-19T00:24:20;19.50;96.00
18101;DHT22;9177;49.156;8.142;2023-11-19T00:26:47;19.50;96.00
18101;DHT22;9177;49.156;8.142;2023-11-19T00:29:15;19.50;96.00
18101;DHT22;9177;49.156;8.142;2023-11-19T00:31:44;19.50;96.00
18101;DHT22;9177;49.156;8.142;2023-11-19T00:34:11;19.50;96.10
18101;DHT22;9177;49.156;8.142;2023-11-19T00:36:40;19.50;96.10
18101;DHT22;9177;49.156;8.142;2023-11-19T00:39:07;19.40;96.10
18101;DHT22;9177;49.156;8.142;2023-11-19T00:41:34;19.40;96.10
18101;DHT22;9177;49.156;8.142;2023-11-19T00:44:01;19.40;96.10
18101;DHT22;9177;49.156;8.142;2023-11-19T00:46:28;19.40;96.10
18101;DHT22;9177;49.156;8.142;2023-11-19T00:48:55;19.40;96.10
18101;DHT22;9177;49.156;8.142;2023-11-19T00:51:24;19.40;96.20
18101;DHT22;9177;49.156;8.142;2023-11-19T00:53:53;19.40;96.20
18101;DHT22;9177;49.156;8.142;2023-11-19T00:56:21;19.40;96.10
18101;DHT22;9177;49.156;8.142;2023-11-19T00:58:48;19.40;96.20
18101;DHT22;9177;49.156;8.142;2023-11-19T01:01:15;19.40;96.20
18101;DHT22;9177;49.156;8.142;2023-11-19T01:03:42;19.40;96.20
18101;DHT22;9177;49.156;8.142;2023-11-19T01:06:09;19.40;96.20
18101;DHT22;9177;49.156;8.142;2023-11-19T01:08:36;19.40;96.20
18101;DHT22;9177;49.156;8.142;2023-11-19T01:11:05;19.40;96.20
18101;DHT22;9177;49.156;8.142;2023-11-19T01:13:32;19.40;96.20
18101;DHT22;9177;49.156;8.142;2023-11-19T01:15:59;19.40;96.20
18101;DHT22;9177;49.156;8.142;2023-11-19T01:18:27;19.40;96.20
18101;DHT22;9177;49.156;8.142;2023-11-19T01:20:55;19.40;96.30
18101;DHT22;9177;49.156;8.142;2023-11-19T01:23:21;19.40;96.60
18101;DHT22;9177;49.156;8.142;2023-11-19T01:25:48;19.40;96.30
18101;DHT22;9177;49.156;8.142;2023-11-19T01:28:17;19.40;96.30
18101;DHT22;9177;49.156;8.142;2023-11-19T01:30:44;19.40;96.30
18101;DHT22;9177;49.156;8.142;2023-11-19T01:33:11;19.40;96.40
18101;DHT22;9177;49.156;8.142;2023-11-19T01:35:38;19.40;96.40
18101;DHT22;9177;49.156;8.142;2023-11-19T01:38:06;19.40;96.40
18101;DHT22;9177;49.156;8.142;2023-11-19T01:40:34;19.40;96.40
18101;DHT22;9177;49.156;8.142;2023-11-19T01:43:02;19.40;96.40
18101;DHT22;9177;49.156;8.142;2023-11-19T01:45:31;19.40;96.40
18101;DHT22;9177;49.156;8.142;2023-11-19T01:47:59;19.40;96.40
18101;DHT22;9177;49.156;8.142;2023-11-19T01:50:27;19.40;96.40
18101;DHT22;9177;49.156;8.142;2023-11-19T01:52:55;19.40;96.40
18101;DHT22;9177;49.156;8.142;2023-11-19T01:55:24;19.40;96.40
18101;DHT22;9177;49.156;8.142;2023-11-19T01:57:53;19.40;96.40
18101;DHT22;9177;49.156;8.142;2023-11-19T02:00:21;19.40;96.40
18101;DHT22;9177;49.156;8.142;2023-11-19T02:02:50;19.40;96.50
18101;DHT22;9177;49.156;8.142;2023-11-19T02:05:20;19.40;96.80
18101;DHT22;9177;49.156;8.142;2023-11-19T02:07:48;19.40;96.50
18101;DHT22;9177;49.156;8.142;2023-11-19T02:10:16;19.40;96.50
18101;DHT22;9177;49.156;8.142;2023-11-19T02:12:45;19.40;96.50
18101;DHT22;9177;49.156;8.142;2023-11-19T02:15:12;19.40;96.50
18101;DHT22;9177;49.156;8.142;2023-11-19T02:17:39;19.40;96.50
18101;DHT22;9177;49.156;8.142;2023-11-19T02:20:08;19.40;96.50
18101;DHT22;9177;49.156;8.142;2023-11-19T02:22:37;19.40;96.50
18101;DHT22;9177;49.156;8.142;2023-11-19T02:25:07;19.40;96.50
18101;DHT22;9177;49.156;8.142;2023-11-19T02:27:47;19.40;96.60
18101;DHT22;9177;49.156;8.142;2023-11-19T02:30:17;19.40;96.60
18101;DHT22;9177;49.156;8.142;2023-11-19T02:32:45;19.40;96.60
18101;DHT22;9177;49.156;8.142;2023-11-19T02:35:11;19.40;96.60
18101;DHT22;9177;49.156;8.142;2023-11-19T02:37:38;19.40;96.60
18101;DHT22;9177;49.156;8.142;2023-11-19T02:40:06;19.40;96.60
18101;DHT22;9177;49.156;8.142;2023-11-19T02:42:34;19.40;96.70
18101;DHT22;9177;49.156;8.142;2023-11-19T02:45:03;19.40;96.70
18101;DHT22;9177;49.156;8.142;2023-11-19T02:47:32;19.40;96.70
18101;DHT22;9177;49.156;8.142;2023-11-19T02:49:59;19.40;96.70
18101;DHT22;9177;49.156;8.142;2023-11-19T02:52:26;19.40;96.70
18101;DHT22;9177;49.156;8.142;2023-11-19T02:54:53;19.40;96.70
18101;DHT22;9177;49.156;8.142;2023-11-19T02:57:21;19.40;96.70
18101;DHT22;9177;49.156;8.142;2023-11-19T02:59:48;19.40;96.70
18101;DHT22;9177;49.156;8.142;2023-11-19T03:02:16;19.40;96.80
18101;DHT22;9177;49.156;8.142;2023-11-19T03:04:43;19.40;96.80
18101;DHT22;9177;49.156;8.142;2023-11-19T03:07:11;19.40;96.80
18101;DHT22;9177;49.156;8.142;2023-11-19T03:09:39;19.40;96.80
18101;DHT22;9177;49.156;8.142;2023-11-19T03:12:07;19.40;96.80
18101;DHT22;9177;49.156;8.142;2023-11-19T03:14:34;19.40;96.80
18101;DHT22;9177;49.156;8.142;2023-11-19T03:17:01;19.40;96.90
18101;DHT22;9177;49.156;8.142;2023-11-19T03:19:30;19.40;96.90
18101;DHT22;9177;49.156;8.142;2023-11-19T03:21:57;19.40;96.90
18101;DHT22;9177;49.156;8.142;2023-11-19T03:24:25;19.40;96.90
18101;DHT22;9177;49.156;8.142;2023-11-19T03:26:51;19.40;96.90
18101;DHT22;9177;49.156;8.142;2023-11-19T03:29:18;19.40;96.90
18101;DHT22;9177;49.156;8.142;2023-11-19T03:31:45;19.40;96.90
18101;DHT22;9177;49.156;8.142;2023-11-19T03:34:12;19.40;96.90
18101;DHT22;9177;49.156;8.142;2023-11-19T03:36:40;19.40;97.00
18101;DHT22;9177;49.156;8.142;2023-11-19T03:39:08;19.40;97.00
18101;DHT22;9177;49.156;8.142;2023-11-19T03:41:35;19.40;97.00
18101;DHT22;9177;49.156;8.142;2023-11-19T03:44:02;19.40;97.00
18101;DHT22;9177;49.156;8.142;2023-11-19T03:46:29;19.40;97.00
18101;DHT22;9177;49.156;8.142;2023-11-19T03:48:56;19.40;97.00
18101;DHT22;9177;49.156;8.142;2023-11-19T03:51:23;19.40;97.00
18101;DHT22;9177;49.156;8.142;2023-11-19T03:53:51;19.40;97.00
18101;DHT22;9177;49.156;8.142;2023-11-19T03:56:18;19.40;97.10
18101;DHT22;9177;49.156;8.142;2023-11-19T03:58:46;19.40;97.10
18101;DHT22;9177;49.156;8.142;2023-11-19T04:01:13;19.40;97.40
18101;DHT22;9177;49.156;8.142;2023-11-19T04:03:40;19.40;97.10
18101;DHT22;9177;49.156;8.142;2023-11-19T04:06:07;19.40;97.10
18101;DHT22;9177;49.156;8.142;2023-11-19T04:08:35;19.40;97.10
18101;DHT22;9177;49.156;8.142;2023-11-19T04:11:04;19.30;97.20
18101;DHT22;9177;49.156;8.142;2023-11-19T04:13:31;19.30;97.20
18101;DHT22;9177;49.156;8.142;2023-11-19T04:15:58;19.30;97.20
18101;DHT22;9177;49.156;8.142;2023-11-19T04:18:25;19.30;97.20
18101;DHT22;9177;49.156;8.142;2023-11-19T04:20:51;19.30;97.20
18101;DHT22;9177;49.156;8.142;2023-11-19T04:23:18;19.30;97.30
18101;DHT22;9177;49.156;8.142;2023-11-19T04:25:45;19.30;97.30
18101;DHT22;9177;49.156;8.142;2023-11-19T04:28:13;19.30;97.30
18101;DHT22;9177;49.156;8.142;2023-11-19T04:30:40;19.30;97.40
18101;DHT22;9177;49.156;8.142;2023-11-19T04:33:07;19.30;97.40
18101;DHT22;9177;49.156;8.142;2023-11-19T04:35:34;19.30;97.40
18101;DHT22;9177;49.156;8.142;2023-11-19T04:38:01;19.30;97.40
18101;DHT22;9177;49.156;8.142;2023-11-19T04:40:27;19.30;97.40
18101;DHT22;9177;49.156;8.142;2023-11-19T04:42:54;19.30;97.50
18101;DHT22;9177;49.156;8.142;2023-11-19T04:45:23;19.30;97.50
18101;DHT22;9177;49.156;8.142;2023-11-19T04:47:50;19.30;97.50
18101;DHT22;9177;49.156;8.142;2023-11-19T04:50:16;19.30;97.60
18101;DHT22;9177;49.156;8.142;2023-11-19T04:52:43;19.30;97.60
18101;DHT22;9177;49.156;8.142;2023-11-19T04:55:12;19.30;97.60
18101;DHT22;9177;49.156;8.142;2023-11-19T04:57:39;19.30;97.60
18101;DHT22;9177;49.156;8.142;2023-11-19T05:00:07;19.30;97.70
18101;DHT22;9177;49.156;8.142;2023-11-19T05:02:36;19.30;97.70
18101;DHT22;9177;49.156;8.142;2023-11-19T05:05:04;19.30;97.70
18101;DHT22;9177;49.156;8.142;2023-11-19T05:07:31;19.30;97.70
18101;DHT22;9177;49.156;8.142;2023-11-19T05:09:59;19.30;97.80
18101;DHT22;9177;49.156;8.142;2023-11-19T05:12:25;19.30;97.80
18101;DHT22;9177;49.156;8.142;2023-11-19T05:14:52;19.30;97.80
18101;DHT22;9177;49.156;8.142;2023-11-19T05:17:19;19.30;97.80
18101;DHT22;9177;49.156;8.142;2023-11-19T05:19:48;19.30;97.90
18101;DHT22;9177;49.156;8.142;2023-11-19T05:22:15;19.20;97.90
18101;DHT22;9177;49.156;8.142;2023-11-19T05:24:41;19.20;97.90
18101;DHT22;9177;49.156;8.142;2023-11-19T05:27:08;19.20;97.90
18101;DHT22;9177;49.156;8.142;2023-11-19T05:29:36;19.20;98.00
18101;DHT22;9177;49.156;8.142;2023-11-19T05:32:05;19.20;98.00
18101;DHT22;9177;49.156;8.142;2023-11-19T05:34:32;19.20;98.00
18101;DHT22;9177;49.156;8.142;2023-11-19T05:37:00;19.20;98.10
18101;DHT22;9177;49.156;8.142;2023-11-19T05:39:28;19.20;98.10
18101;DHT22;9177;49.156;8.142;2023-11-19T05:41:55;19.20;98.10
18101;DHT22;9177;49.156;8.142;2023-11-19T05:44:21;19.20;98.10
18101;DHT22;9177;49.156;8.142;2023-11-19T05:46:48;19.20;98.10
18101;DHT22;9177;49.156;8.142;2023-11-19T05:49:15;19.20;98.50
18101;DHT22;9177;49.156;8.142;2023-11-19T05:51:42;19.20;98.20
18101;DHT22;9177;49.156;8.142;2023-11-19T05:54:10;19.20;98.20
18101;DHT22;9177;49.156;8.142;2023-11-19T05:56:39;19.20;98.20
18101;DHT22;9177;49.156;8.142;2023-11-19T05:59:06;19.20;98.20
18101;DHT22;9177;49.156;8.142;2023-11-19T06:01:40;19.20;98.20
18101;DHT22;9177;49.156;8.142;2023-11-19T06:04:08;19.20;98.30
18101;DHT22;9177;49.156;8.142;2023-11-19T06:06:35;19.20;98.30
18101;DHT22;9177;49.156;8.142;2023-11-19T06:09:02;19.20;98.30
18101;DHT22;9177;49.156;8.142;2023-11-19T06:11:33;19.20;98.30
18101;DHT22;9177;49.156;8.142;2023-11-19T06:14:01;19.20;98.30
18101;DHT22;9177;49.156;8.142;2023-11-19T06:16:31;19.20;98.30
18101;DHT22;9177;49.156;8.142;2023-11-19T06:18:58;19.20;98.40
18101;DHT22;9177;49.156;8.142;2023-11-19T06:21:25;19.20;98.40
18101;DHT22;9177;49.156;8.142;2023-11-19T06:23:51;19.20;98.40
18101;DHT22;9177;49.156;8.142;2023-11-19T06:26:18;19.20;98.40
18101;DHT22;9177;49.156;8.142;2023-11-19T06:28:49;19.20;98.40
18101;DHT22;9177;49.156;8.142;2023-11-19T06:31:15;19.20;98.40
18101;DHT22;9177;49.156;8.142;2023-11-19T06:33:42;19.20;98.50
18101;DHT22;9177;49.156;8.142;2023-11-19T06:36:09;19.20;98.50
18101;DHT22;9177;49.156;8.142;2023-11-19T06:38:36;19.20;98.50
18101;DHT22;9177;49.156;8.142;2023-11-19T06:41:07;19.20;98.50
18101;DHT22;9177;49.156;8.142;2023-11-19T06:43:34;19.20;98.50
18101;DHT22;9177;49.156;8.142;2023-11-19T06:46:02;19.20;98.50
18101;DHT22;9177;49.156;8.142;2023-11-19T06:48:31;19.20;98.50
18101;DHT22;9177;49.156;8.142;2023-11-19T06:50:59;19.20;98.50
18101;DHT22;9177;49.156;8.142;2023-11-19T06:53:26;19.20;98.50
18101;DHT22;9177;49.156;8.142;2023-11-19T06:55:53;19.20;98.60
18101;DHT22;9177;49.156;8.142;2023-11-19T06:58:20;19.20;98.60
18101;DHT22;9177;49.156;8.142;2023-11-19T07:00:48;19.20;98.60
18101;DHT22;9177;49.156;8.142;2023-11-19T07:03:18;19.20;98.60
18101;DHT22;9177;49.156;8.142;2023-11-19T07:05:46;19.20;98.60
18101;DHT22;9177;49.156;8.142;2023-11-19T07:08:12;19.20;98.60
18101;DHT22;9177;49.156;8.142;2023-11-19T07:10:39;19.20;98.60
18101;DHT22;9177;49.156;8.142;2023-11-19T07:13:06;19.20;98.60
18101;DHT22;9177;49.156;8.142;2023-11-19T07:15:33;19.20;98.60
18101;DHT22;9177;49.156;8.142;2023-11-19T07:18:00;19.20;98.70
18101;DHT22;9177;49.156;8.142;2023-11-19T07:20:28;19.20;98.70
18101;DHT22;9177;49.156;8.142;2023-11-19T07:22:56;19.20;98.70
18101;DHT22;9177;49.156;8.142;2023-11-19T07:25:23;19.20;98.70
18101;DHT22;9177;49.156;8.142;2023-11-19T07:27:51;19.20;98.80
18101;DHT22;9177;49.156;8.142;2023-11-19T07:30:19;19.20;98.80
18101;DHT22;9177;49.156;8.142;2023-11-19T07:32:46;19.20;98.80
18101;DHT22;9177;49.156;8.142;2023-11-19T07:35:13;19.20;98.80
18101;DHT22;9177;49.156;8.142;2023-11-19T07:37:43;19.20;98.80
18101;DHT22;9177;49.156;8.142;2023-11-19T07:40:12;19.10;98.80
18101;DHT22;9177;49.156;8.142;2023-11-19T07:42:39;19.20;98.90
18101;DHT22;9177;49.156;8.142;2023-11-19T07:45:09;19.20;98.90
18101;DHT22;9177;49.156;8.142;2023-11-19T07:47:36;19.20;98.90
18101;DHT22;9177;49.156;8.142;2023-11-19T07:50:05;19.20;98.90
18101;DHT22;9177;49.156;8.142;2023-11-19T07:52:32;19.20;98.90
18101;DHT22;9177;49.156;8.142;2023-11-19T07:55:00;19.20;98.90
18101;DHT22;9177;49.156;8.142;2023-11-19T07:57:28;19.20;98.90
18101;DHT22;9177;49.156;8.142;2023-11-19T07:59:56;19.20;98.90
18101;DHT22;9177;49.156;8.142;2023-11-19T08:02:23;19.20;98.90
18101;DHT22;9177;49.156;8.142;2023-11-19T08:04:50;19.20;99.00
18101;DHT22;9177;49.156;8.142;2023-11-19T08:07:20;19.20;98.90
18101;DHT22;9177;49.156;8.142;2023-11-19T08:09:47;19.20;99.00
18101;DHT22;9177;49.156;8.142;2023-11-19T08:12:15;19.20;99.00
18101;DHT22;9177;49.156;8.142;2023-11-19T08:14:43;19.20;99.00
18101;DHT22;9177;49.156;8.142;2023-11-19T08:17:10;19.20;99.00
18101;DHT22;9177;49.156;8.142;2023-11-19T08:19:37;19.20;99.00
18101;DHT22;9177;49.156;8.142;2023-11-19T08:22:04;19.20;99.00
18101;DHT22;9177;49.156;8.142;2023-11-19T08:24:31;19.20;99.00
18101;DHT22;9177;49.156;8.142;2023-11-19T08:26:58;19.20;99.40
18101;DHT22;9177;49.156;8.142;2023-11-19T08:29:27;19.20;99.10
18101;DHT22;9177;49.156;8.142;2023-11-19T08:31:54;19.20;99.10
18101;DHT22;9177;49.156;8.142;2023-11-19T08:34:21;19.20;99.10
18101;DHT22;9177;49.156;8.142;2023-11-19T08:36:50;19.20;99.10
18101;DHT22;9177;49.156;8.142;2023-11-19T08:39:19;19.20;99.10
18101;DHT22;9177;49.156;8.142;2023-11-19T08:41:46;19.20;99.10
18101;DHT22;9177;49.156;8.142;2023-11-19T08:44:14;19.20;99.10
18101;DHT22;9177;49.156;8.142;2023-11-19T08:46:47;19.20;99.10
18101;DHT22;9177;49.156;8.142;2023-11-19T08:49:15;19.20;99.10
18101;DHT22;9177;49.156;8.142;2023-11-19T08:51:42;19.30;99.10
18101;DHT22;9177;49.156;8.142;2023-11-19T08:54:09;19.30;99.10
18101;DHT22;9177;49.156;8.142;2023-11-19T08:56:36;19.20;99.10
18101;DHT22;9177;49.156;8.142;2023-11-19T08:59:04;19.30;99.10
18101;DHT22;9177;49.156;8.142;2023-11-19T09:01:32;19.20;99.10
18101;DHT22;9177;49.156;8.142;2023-11-19T09:04:00;19.30;99.20
18101;DHT22;9177;49.156;8.142;2023-11-19T09:06:27;19.30;99.20
18101;DHT22;9177;49.156;8.142;2023-11-19T09:08:54;19.20;99.20
18101;DHT22;9177;49.156;8.142;2023-11-19T09:11:26;19.30;99.20
18101;DHT22;9177;49.156;8.142;2023-11-19T09:13:53;19.30;99.20
18101;DHT22;9177;49.156;8.142;2023-11-19T09:16:20;19.30;99.20
18101;DHT22;9177;49.156;8.142;2023-11-19T09:18:48;19.30;99.20
18101;DHT22;9177;49.156;8.142;2023-11-19T09:21:17;19.30;99.20
18101;DHT22;9177;49.156;8.142;2023-11-19T09:23:44;19.30;99.20
18101;DHT22;9177;49.156;8.142;2023-11-19T09:26:13;19.30;99.20
18101;DHT22;9177;49.156;8.142;2023-11-19T09:28:40;19.40;99.20
18101;DHT22;9177;49.156;8.142;2023-11-19T09:31:17;19.40;99.10
18101;DHT22;9177;49.156;8.142;2023-11-19T09:33:45;19.40;99.10
18101;DHT22;9177;49.156;8.142;2023-11-19T09:36:12;19.40;99.10
18101;DHT22;9177;49.156;8.142;2023-11-19T09:38:43;19.50;99.10
18101;DHT22;9177;49.156;8.142;2023-11-19T09:41:11;19.50;99.10
18101;DHT22;9177;49.156;8.142;2023-11-19T09:43:39;19.50;99.10
18101;DHT22;9177;49.156;8.142;2023-11-19T09:46:09;19.50;99.10
18101;DHT22;9177;49.156;8.142;2023-11-19T09:48:38;19.50;99.10
18101;DHT22;9177;49.156;8.142;2023-11-19T09:51:06;19.50;99.10
18101;DHT22;9177;49.156;8.142;2023-11-19T09:53:35;19.50;99.10
18101;DHT22;9177;49.156;8.142;2023-11-19T09:56:05;19.50;99.10
18101;DHT22;9177;49.156;8.142;2023-11-19T09:58:34;19.50;99.10
18101;DHT22;9177;49.156;8.142;2023-11-19T10:01:01;19.50;99.10
18101;DHT22;9177;49.156;8.142;2023-11-19T10:03:33;19.50;99.10
18101;DHT22;9177;49.156;8.142;2023-11-19T10:06:03;19.50;99.10
18101;DHT22;9177;49.156;8.142;2023-11-19T10:08:31;19.50;99.20
18101;DHT22;9177;49.156;8.142;2023-11-19T10:10:58;19.50;99.10
18101;DHT22;9177;49.156;8.142;2023-11-19T10:13:28;19.50;99.10
18101;DHT22;9177;49.156;8.142;2023-11-19T10:15:56;19.50;99.10
18101;DHT22;9177;49.156;8.142;2023-11-19T10:18:25;19.60;99.40
18101;DHT22;9177;49.156;8.142;2023-11-19T10:20:53;19.60;99.00
18101;DHT22;9177;49.156;8.142;2023-11-19T10:23:20;19.60;99.00
18101;DHT22;9177;49.156;8.142;2023-11-19T10:25:47;19.60;99.40
18101;DHT22;9177;49.156;8.142;2023-11-19T10:28:15;19.60;99.00
18101;DHT22;9177;49.156;8.142;2023-11-19T10:30:44;19.60;99.10
18101;DHT22;9177;49.156;8.142;2023-11-19T10:33:14;19.70;98.90
18101;DHT22;9177;49.156;8.142;2023-11-19T10:35:53;19.80;98.80
18101;DHT22;9177;49.156;8.142;2023-11-19T10:38:20;19.90;98.70
18101;DHT22;9177;49.156;8.142;2023-11-19T10:40:48;20.00;98.50
18101;DHT22;9177;49.156;8.142;2023-11-19T10:43:16;20.10;98.40
18101;DHT22;9177;49.156;8.142;2023-11-19T10:45:45;20.20;98.20
18101;DHT22;9177;49.156;8.142;2023-11-19T10:48:12;20.30;98.10
18101;DHT22;9177;49.156;8.142;2023-11-19T10:50:40;20.40;98.00
18101;DHT22;9177;49.156;8.142;2023-11-19T10:53:10;20.40;97.90
18101;DHT22;9177;49.156;8.142;2023-11-19T10:55:39;20.50;97.80
18101;DHT22;9177;49.156;8.142;2023-11-19T10:58:07;20.60;97.60
18101;DHT22;9177;49.156;8.142;2023-11-19T11:00:38;20.70;97.50
18101;DHT22;9177;49.156;8.142;2023-11-19T11:03:10;20.70;97.40
18101;DHT22;9177;49.156;8.142;2023-11-19T11:05:38;20.80;97.30
18101;DHT22;9177;49.156;8.142;2023-11-19T11:08:07;20.90;97.30
18101;DHT22;9177;49.156;8.142;2023-11-19T11:10:40;20.90;97.20
18101;DHT22;9177;49.156;8.142;2023-11-19T11:13:10;20.80;97.30
18101;DHT22;9177;49.156;8.142;2023-11-19T11:15:38;20.70;97.40
18101;DHT22;9177;49.156;8.142;2023-11-19T11:18:09;20.70;97.50
18101;DHT22;9177;49.156;8.142;2023-11-19T11:20:36;20.70;97.50
18101;DHT22;9177;49.156;8.142;2023-11-19T11:23:23;20.60;97.50
18101;DHT22;9177;49.156;8.142;2023-11-19T11:26:03;20.70;97.50
18101;DHT22;9177;49.156;8.142;2023-11-19T11:28:39;20.60;97.50
18101;DHT22;9177;49.156;8.142;2023-11-19T11:31:23;20.50;97.70
18101;DHT22;9177;49.156;8.142;2023-11-19T11:34:27;20.50;97.70
18101;DHT22;9177;49.156;8.142;2023-11-19T11:37:06;20.40;97.70
18101;DHT22;9177;49.156;8.142;2023-11-19T11:39:36;20.40;97.90
18101;DHT22;9177;49.156;8.142;2023-11-19T11:42:34;20.40;97.90
18101;DHT22;9177;49.156;8.142;2023-11-19T11:45:03;20.40;98.00
18101;DHT22;9177;49.156;8.142;2023-11-19T11:48:05;20.50;97.90
18101;DHT22;9177;49.156;8.142;2023-11-19T11:50:35;20.50;97.90
18101;DHT22;9177;49.156;8.142;2023-11-19T11:53:17;20.60;97.70
18101;DHT22;9177;49.156;8.142;2023-11-19T11:55:57;20.70;97.70
18101;DHT22;9177;49.156;8.142;2023-11-19T11:58:32;20.70;97.60
18101;DHT22;9177;49.156;8.142;2023-11-19T12:01:04;20.80;97.70
18101;DHT22;9177;49.156;8.142;2023-11-19T12:03:37;20.90;97.60
18101;DHT22;9177;49.156;8.142;2023-11-19T12:06:06;20.90;97.40
18101;DHT22;9177;49.156;8.142;2023-11-19T12:08:35;21.00;97.30
18101;DHT22;9177;49.156;8.142;2023-11-19T12:11:02;21.10;97.30
18101;DHT22;9177;49.156;8.142;2023-11-19T12:13:53;21.20;97.10
18101;DHT22;9177;49.156;8.142;2023-11-19T12:16:24;21.20;97.30
18101;DHT22;9177;49.156;8.142;2023-11-19T12:18:56;21.40;96.80
18101;DHT22;9177;49.156;8.142;2023-11-19T12:21:31;21.50;96.70
18101;DHT22;9177;49.156;8.142;2023-11-19T12:23:59;21.60;96.60
18101;DHT22;9177;49.156;8.142;2023-11-19T12:26:42;21.50;96.50
18101;DHT22;9177;49.156;8.142;2023-11-19T12:29:10;21.60;96.60
18101;DHT22;9177;49.156;8.142;2023-11-19T12:31:37;21.60;96.50
18101;DHT22;9177;49.156;8.142;2023-11-19T12:34:11;21.70;96.30
18101;DHT22;9177;49.156;8.142;2023-11-19T12:36:40;21.80;96.20
18101;DHT22;9177;49.156;8.142;2023-11-19T12:39:10;21.90;96.10
18101;DHT22;9177;49.156;8.142;2023-11-19T12:41:50;22.00;96.10
18101;DHT22;9177;49.156;8.142;2023-11-19T12:44:18;22.10;96.00
18101;DHT22;9177;49.156;8.142;2023-11-19T12:46:45;22.10;96.00
18101;DHT22;9177;49.156;8.142;2023-11-19T12:49:13;22.00;95.90
18101;DHT22;9177;49.156;8.142;2023-11-19T12:51:41;21.80;96.00
18101;DHT22;9177;49.156;8.142;2023-11-19T12:54:08;21.60;96.40
18101;DHT22;9177;49.156;8.142;2023-11-19T12:56:36;21.60;96.60
18101;DHT22;9177;49.156;8.142;2023-11-19T12:59:12;21.50;96.70
18101;DHT22;9177;49.156;8.142;2023-11-19T13:01:39;21.70;96.50
18101;DHT22;9177;49.156;8.142;2023-11-19T13:04:18;21.90;96.40
18101;DHT22;9177;49.156;8.142;2023-11-19T13:06:47;21.80;96.40
18101;DHT22;9177;49.156;8.142;2023-11-19T13:09:24;21.60;96.70
18101;DHT22;9177;49.156;8.142;2023-11-19T13:11:52;21.50;96.80
18101;DHT22;9177;49.156;8.142;2023-11-19T13:14:19;21.60;96.60
18101;DHT22;9177;49.156;8.142;2023-11-19T13:16:47;21.80;96.50
18101;DHT22;9177;49.156;8.142;2023-11-19T13:19:15;21.80;96.50
18101;DHT22;9177;49.156;8.142;2023-11-19T13:21:45;21.70;96.90
18101;DHT22;9177;49.156;8.142;2023-11-19T13:24:14;21.50;96.70
18101;DHT22;9177;49.156;8.142;2023-11-19T13:26:41;21.60;96.90
18101;DHT22;9177;49.156;8.142;2023-11-19T13:29:08;21.70;96.70
18101;DHT22;9177;49.156;8.142;2023-11-19T13:31:37;21.80;96.50
18101;DHT22;9177;49.156;8.142;2023-11-19T13:34:04;21.90;96.30
18101;DHT22;9177;49.156;8.142;2023-11-19T13:36:33;22.00;96.20
18101;DHT22;9177;49.156;8.142;2023-11-19T13:39:02;21.90;96.30
18101;DHT22;9177;49.156;8.142;2023-11-19T13:41:29;21.90;96.50
18101;DHT22;9177;49.156;8.142;2023-11-19T13:43:56;21.90;96.50
18101;DHT22;9177;49.156;8.142;2023-11-19T13:46:24;21.80;96.40
18101;DHT22;9177;49.156;8.142;2023-11-19T13:48:51;21.80;96.30
18101;DHT22;9177;49.156;8.142;2023-11-19T13:51:18;21.80;96.00
18101;DHT22;9177;49.156;8.142;2023-11-19T13:53:46;21.80;95.90
18101;DHT22;9177;49.156;8.142;2023-11-19T13:56:14;21.80;95.90
18101;DHT22;9177;49.156;8.142;2023-11-19T13:58:41;21.90;96.00
18101;DHT22;9177;49.156;8.142;2023-11-19T14:01:08;21.90;95.80
18101;DHT22;9177;49.156;8.142;2023-11-19T14:03:35;22.00;95.60
18101;DHT22;9177;49.156;8.142;2023-11-19T14:06:02;21.90;95.70
18101;DHT22;9177;49.156;8.142;2023-11-19T14:08:30;21.80;96.30
18101;DHT22;9177;49.156;8.142;2023-11-19T14:10:57;21.80;96.20
18101;DHT22;9177;49.156;8.142;2023-11-19T14:13:26;21.80;95.80
18101;DHT22;9177;49.156;8.142;2023-11-19T14:15:53;21.80;95.80
18101;DHT22;9177;49.156;8.142;2023-11-19T14:18:20;21.80;96.00
18101;DHT22;9177;49.156;8.142;2023-11-19T14:20:47;21.70;95.90
18101;DHT22;9177;49.156;8.142;2023-11-19T14:23:14;21.60;96.00
18101;DHT22;9177;49.156;8.142;2023-11-19T14:25:43;21.60;96.10
18101;DHT22;9177;49.156;8.142;2023-11-19T14:28:10;21.50;96.10
18101;DHT22;9177;49.156;8.142;2023-11-19T14:30:39;21.50;96.30
18101;DHT22;9177;49.156;8.142;2023-11-19T14:33:07;21.40;96.80
18101;DHT22;9177;49.156;8.142;2023-11-19T14:35:36;21.30;96.80
18101;DHT22;9177;49.156;8.142;2023-11-19T14:38:04;21.30;96.60
18101;DHT22;9177;49.156;8.142;2023-11-19T14:40:35;21.40;96.60
18101;DHT22;9177;49.156;8.142;2023-11-19T14:43:02;21.40;96.40
18101;DHT22;9177;49.156;8.142;2023-11-19T14:45:30;21.40;96.30
18101;DHT22;9177;49.156;8.142;2023-11-19T14:47:58;21.40;96.20
18101;DHT22;9177;49.156;8.142;2023-11-19T14:50:26;21.40;96.10
18101;DHT22;9177;49.156;8.142;2023-11-19T14:52:53;21.40;95.90
18101;DHT22;9177;49.156;8.142;2023-11-19T14:55:20;21.40;95.90
18101;DHT22;9177;49.156;8.142;2023-11-19T14:57:47;21.40;95.90
18101;DHT22;9177;49.156;8.142;2023-11-19T15:00:16;21.30;95.70
18101;DHT22;9177;49.156;8.142;2023-11-19T15:02:43;21.40;95.70
18101;DHT22;9177;49.156;8.142;2023-11-19T15:05:12;21.40;95.80
18101;DHT22;9177;49.156;8.142;2023-11-19T15:07:40;21.30;95.80
18101;DHT22;9177;49.156;8.142;2023-11-19T15:10:08;21.40;95.90
18101;DHT22;9177;49.156;8.142;2023-11-19T15:12:36;21.40;96.00
18101;DHT22;9177;49.156;8.142;2023-11-19T15:15:07;21.30;96.00
18101;DHT22;9177;49.156;8.142;2023-11-19T15:17:35;21.20;96.00
18101;DHT22;9177;49.156;8.142;2023-11-19T15:20:03;21.10;96.00
18101;DHT22;9177;49.156;8.142;2023-11-19T15:22:32;21.10;96.30
18101;DHT22;9177;49.156;8.142;2023-11-19T15:24:59;21.10;96.50
18101;DHT22;9177;49.156;8.142;2023-11-19T15:27:28;21.10;96.40
18101;DHT22;9177;49.156;8.142;2023-11-19T15:29:56;21.00;96.70
18101;DHT22;9177;49.156;8.142;2023-11-19T15:32:24;20.80;97.00
18101;DHT22;9177;49.156;8.142;2023-11-19T15:34:51;20.80;97.70
18101;DHT22;9177;49.156;8.142;2023-11-19T15:37:18;20.80;97.30
18101;DHT22;9177;49.156;8.142;2023-11-19T15:39:47;20.80;97.50
18101;DHT22;9177;49.156;8.142;2023-11-19T15:42:17;20.80;97.40
18101;DHT22;9177;49.156;8.142;2023-11-19T15:44:44;20.80;97.60
18101;DHT22;9177;49.156;8.142;2023-11-19T15:47:11;20.80;97.50
18101;DHT22;9177;49.156;8.142;2023-11-19T15:49:40;20.70;97.90
18101;DHT22;9177;49.156;8.142;2023-11-19T15:52:07;20.60;98.00
18101;DHT22;9177;49.156;8.142;2023-11-19T15:54:35;20.60;97.90